Time;durP1;ratioP1;P1;durP2;ratioP2;P2;SDS_P1;SDS_P2;PMS_P1;PMS_P2;Temp;Humidity;BMP_temperature;BMP_pressure;BME280_temperature;BME280_humidity;BME280_pressure;Samples;Min_cycle;Max_cycle;Signal;HPM_P1;HPM_P2
2021/06/09 08:21:21;;;;;;;505.35;478.08;;;20.70;99.90;;;;;;5147817;27;20867;-79
2021/06/09 08:23:49;;;;;;;636.83;599.17;;;19.70;99.90;;;;;;5130473;28;20246;-76
2021/06/09 08:26:17;;;;;;;702.22;660.33;;;19.70;99.90;;;;;;5130241;27;20174;-76
2021/06/09 08:28:46;;;;;;;718.97;676.38;;;19.80;99.90;;;;;;5131640;27;20170;-73
2021/06/09 08:31:17;;;;;;;782.22;735.08;;;19.90;99.90;;;;;;5131548;28;20223;-70
2021/06/09 08:33:44;;;;;;;697.15;655.88;;;20.00;99.90;;;;;;5131554;27;20245;-71
2021/06/09 08:36:13;;;;;;;686.75;646.65;;;20.10;99.90;;;;;;5131458;27;20736;-70
2021/06/09 08:38:39;;;;;;;565.80;534.50;;;20.20;99.90;;;;;;5131345;27;20226;-70
2021/06/09 08:41:07;;;;;;;548.28;518.40;;;20.20;99.90;;;;;;5130011;28;20563;-71
2021/06/09 08:43:34;;;;;;;574.65;542.97;;;20.20;99.90;;;;;;5131287;28;20166;-70
2021/06/09 08:46:01;;;;;;;538.00;509.08;;;20.30;99.90;;;;;;5131296;28;20516;-71
2021/06/09 08:48:28;;;;;;;617.95;582.58;;;20.30;99.90;;;;;;5131256;27;20526;-70
2021/06/09 08:50:55;;;;;;;492.05;466.60;;;20.40;99.90;;;;;;5131067;28;20661;-73
2021/06/09 08:53:22;;;;;;;470.48;446.75;;;20.40;99.90;;;;;;5131085;27;20170;-71
2021/06/09 08:55:49;;;;;;;475.50;451.60;;;20.50;99.90;;;;;;5131098;27;20170;-71
2021/06/09 08:58:15;;;;;;;471.38;447.55;;;20.40;99.90;;;;;;5131094;28;20214;-71
2021/06/09 09:00:44;;;;;;;464.33;441.08;;;20.40;99.90;;;;;;5130894;27;20193;-71
2021/06/09 09:03:10;;;;;;;395.30;376.27;;;20.60;99.90;;;;;;5130973;27;20158;-68
2021/06/09 09:05:36;;;;;;;422.92;402.35;;;20.80;99.90;;;;;;5130897;28;20567;-69
2021/06/09 09:08:04;;;;;;;419.77;399.38;;;21.00;99.90;;;;;;5130847;28;20244;-66
2021/06/09 09:10:29;;;;;;;416.40;395.80;;;21.20;99.90;;;;;;5130873;28;20230;-66
2021/06/09 09:12:55;;;;;;;397.13;377.92;;;21.20;99.90;;;;;;5129395;28;20186;-66
2021/06/09 09:15:22;;;;;;;408.98;389.17;;;21.30;99.90;;;;;;5130807;28;20170;-71
2021/06/09 09:17:49;;;;;;;394.30;375.38;;;21.30;99.90;;;;;;5130773;28;20278;-70
2021/06/09 09:20:22;;;;;;;374.90;357.15;;;21.40;99.90;;;;;;5130312;27;20297;-70
2021/06/09 09:22:48;;;;;;;428.33;407.20;;;21.30;99.90;;;;;;5130507;28;20243;-70
2021/06/09 09:25:19;;;;;;;402.65;383.17;;;21.40;99.90;;;;;;5130545;28;20248;-71
2021/06/09 09:28:05;;;;;;;392.15;372.88;;;21.60;99.90;;;;;;5130554;27;20544;-70
2021/06/09 09:30:34;;;;;;;337.40;321.48;;;21.90;99.90;;;;;;5128444;28;20500;-70
2021/06/09 09:33:02;;;;;;;336.67;320.38;;;22.10;99.90;;;;;;5116651;28;20570;-71
2021/06/09 09:35:37;;;;;;;305.60;290.48;;;22.20;99.90;;;;;;5116678;28;20166;-70
2021/06/09 09:38:28;;;;;;;305.55;290.80;;;22.00;99.90;;;;;;5116684;28;20627;-70
2021/06/09 09:41:10;;;;;;;340.05;323.92;;;21.90;99.90;;;;;;5116461;28;20197;-70
2021/06/09 09:43:49;;;;;;;320.10;305.15;;;21.80;99.90;;;;;;5116519;28;20154;-72
2021/06/09 09:46:31;;;;;;;341.13;324.90;;;21.80;99.90;;;;;;5116449;28;20162;-70
2021/06/09 09:49:14;;;;;;;311.33;296.65;;;21.80;99.90;;;;;;5116390;28;20159;-70
2021/06/09 09:52:01;;;;;;;288.83;275.33;;;21.80;99.90;;;;;;5116347;28;20163;-70
2021/06/09 09:54:35;;;;;;;284.15;270.92;;;21.80;99.90;;;;;;5116356;28;20622;-69
2021/06/09 09:57:06;;;;;;;321.85;306.75;;;21.80;99.90;;;;;;5116313;28;20167;-70
2021/06/09 09:59:33;;;;;;;321.98;306.85;;;21.90;99.90;;;;;;5114885;28;20373;-68
2021/06/09 10:02:02;;;;;;;313.20;298.38;;;21.90;99.90;;;;;;5114756;28;20632;-70
2021/06/09 10:04:35;;;;;;;275.35;262.70;;;21.90;99.90;;;;;;5116051;28;20623;-71
2021/06/09 10:07:02;;;;;;;302.02;288.00;;;21.90;99.90;;;;;;5116059;28;20173;-70
2021/06/09 10:09:43;;;;;;;299.80;285.75;;;22.00;99.90;;;;;;5114761;28;20170;-73
2021/06/09 10:12:17;;;;;;;277.38;264.45;;;22.10;99.90;;;;;;5115963;28;20260;-70
2021/06/09 10:14:50;;;;;;;275.48;262.73;;;22.10;99.90;;;;;;5115823;28;20186;-70
2021/06/09 10:17:24;;;;;;;281.95;268.90;;;22.00;99.90;;;;;;5115805;28;20159;-68
2021/06/09 10:19:54;;;;;;;284.77;271.63;;;21.90;99.90;;;;;;5115589;28;20696;-69
2021/06/09 10:22:23;;;;;;;324.55;309.40;;;21.80;99.90;;;;;;5115762;28;20207;-70
2021/06/09 10:25:02;;;;;;;324.95;309.77;;;21.90;99.90;;;;;;5115720;28;20185;-69
2021/06/09 10:27:48;;;;;;;332.13;316.45;;;21.90;99.90;;;;;;5114397;28;20190;-69
2021/06/09 10:30:17;;;;;;;293.15;279.50;;;22.10;99.90;;;;;;5115575;28;20303;-70
2021/06/09 10:32:57;;;;;;;254.82;243.07;;;22.40;99.90;;;;;;5115542;28;20166;-70
2021/06/09 10:35:35;;;;;;;234.93;224.00;;;22.60;99.90;;;;;;5115502;28;20577;-67
2021/06/09 10:38:01;;;;;;;264.67;252.48;;;22.60;99.90;;;;;;5115491;28;20222;-67
2021/06/09 10:40:30;;;;;;;262.23;250.18;;;22.50;99.90;;;;;;5115320;28;20201;-67
2021/06/09 10:42:59;;;;;;;241.73;230.52;;;22.50;99.90;;;;;;5114307;28;20561;-67
2021/06/09 10:45:25;;;;;;;260.70;248.55;;;22.40;99.90;;;;;;5115275;28;20159;-72
2021/06/09 10:47:55;;;;;;;268.50;256.15;;;22.30;99.90;;;;;;5115040;28;20170;-72
2021/06/09 10:50:21;;;;;;;252.27;240.60;;;22.20;99.90;;;;;;5115171;28;20170;-79
2021/06/09 10:52:47;;;;;;;248.63;236.75;;;22.30;99.90;;;;;;5115142;28;20220;-73
2021/06/09 10:55:13;;;;;;;279.58;266.70;;;22.50;99.90;;;;;;5115121;28;20552;-73
2021/06/09 10:57:39;;;;;;;285.10;271.95;;;22.70;99.90;;;;;;5115158;28;20628;-72
2021/06/09 11:00:07;;;;;;;284.98;271.85;;;22.90;99.90;;;;;;5113634;28;20243;-72
2021/06/09 11:02:33;;;;;;;322.25;307.23;;;23.00;99.90;;;;;;5113616;28;20192;-72
2021/06/09 11:05:04;;;;;;;301.40;287.35;;;22.80;99.90;;;;;;5114899;28;20162;-72
2021/06/09 11:07:45;;;;;;;301.38;287.33;;;22.70;99.90;;;;;;5114774;28;20173;-72
2021/06/09 11:10:13;;;;;;;323.70;308.48;;;22.50;99.90;;;;;;5114809;28;20170;-72
2021/06/09 11:12:44;;;;;;;278.58;265.63;;;22.40;99.90;;;;;;5114653;28;20593;-73
2021/06/09 11:15:18;;;;;;;296.90;283.02;;;22.30;99.90;;;;;;5114693;28;20522;-74
2021/06/09 11:17:50;;;;;;;270.42;257.80;;;22.40;99.90;;;;;;5114728;28;20216;-73
2021/06/09 11:20:30;;;;;;;248.95;237.27;;;22.50;99.90;;;;;;5114420;28;20225;-74
2021/06/09 11:23:04;;;;;;;270.90;258.38;;;22.70;99.90;;;;;;5114524;28;20178;-73
2021/06/09 11:25:31;;;;;;;262.38;250.25;;;22.90;99.90;;;;;;5113283;28;20560;-73
2021/06/09 11:28:13;;;;;;;270.27;256.55;;;22.90;99.90;;;;;;5114523;28;20162;-72
2021/06/09 11:30:42;;;;;;;269.92;257.48;;;23.00;99.90;;;;;;5113170;28;20173;-73
2021/06/09 11:33:10;;;;;;;291.23;277.83;;;23.00;99.90;;;;;;5114376;28;20720;-73
2021/06/09 11:35:46;;;;;;;292.65;278.60;;;23.00;99.90;;;;;;5114242;28;20273;-73
2021/06/09 11:38:14;;;;;;;282.63;269.63;;;23.10;99.90;;;;;;5114327;28;20524;-74
2021/06/09 11:40:59;;;;;;;277.75;264.55;;;23.30;99.90;;;;;;5114161;28;20202;-75
2021/06/09 11:43:38;;;;;;;267.92;255.55;;;23.50;99.90;;;;;;5114273;28;20253;-70
2021/06/09 11:46:18;;;;;;;276.10;263.45;;;23.70;99.90;;;;;;5114102;28;20170;-78
2021/06/09 11:49:14;;;;;;;317.55;302.65;;;23.80;99.90;;;;;;5114225;28;20167;-83
2021/06/09 11:51:58;;;;;;;290.25;276.75;;;23.60;99.90;;;;;;5114032;28;20246;-85
2021/06/09 11:54:29;;;;;;;285.85;272.52;;;23.50;99.90;;;;;;5112429;28;20174;-87
2021/06/09 11:56:57;;;;;;;281.63;268.52;;;23.50;99.90;;;;;;5114208;28;20174;-86
2021/06/09 11:59:33;;;;;;;346.88;330.55;;;23.50;99.90;;;;;;5113976;28;20178;-87
2021/06/09 12:02:02;;;;;;;335.70;319.88;;;23.50;99.90;;;;;;5113953;28;20156;-87
2021/06/09 12:04:42;;;;;;;369.15;351.63;;;23.40;99.90;;;;;;5112577;28;20239;-85
2021/06/09 12:07:19;;;;;;;317.20;302.25;;;23.30;99.90;;;;;;5112854;28;20173;-78
2021/06/09 12:09:46;;;;;;;324.85;309.50;;;23.40;99.90;;;;;;5113797;28;20198;-74
2021/06/09 12:12:13;;;;;;;343.70;327.55;;;23.60;99.90;;;;;;5113800;28;20158;-73
2021/06/09 12:14:40;;;;;;;372.92;355.05;;;23.80;99.90;;;;;;5113707;28;20185;-73
2021/06/09 12:17:12;;;;;;;334.35;318.52;;;23.90;99.90;;;;;;5113766;28;20193;-74
2021/06/09 12:20:07;;;;;;;335.23;318.52;;;24.10;99.90;;;;;;5112334;28;20225;-74
2021/06/09 12:22:34;;;;;;;335.42;319.50;;;24.20;99.90;;;;;;5113718;28;20171;-76
2021/06/09 12:25:04;;;;;;;323.08;307.88;;;24.30;99.90;;;;;;5113679;28;20177;-73
2021/06/09 12:27:31;;;;;;;372.30;354.30;;;24.60;99.90;;;;;;5113724;28;20158;-73
2021/06/09 12:29:57;;;;;;;311.20;296.58;;;24.50;99.90;;;;;;5113511;28;20197;-73
2021/06/09 12:32:27;;;;;;;303.33;289.05;;;24.60;99.90;;;;;;5113588;28;20166;-73
2021/06/09 12:35:13;;;;;;;408.67;388.58;;;24.80;99.90;;;;;;5113618;28;20166;-74
2021/06/09 12:37:46;;;;;;;375.55;357.45;;;24.90;99.90;;;;;;5113612;28;20166;-77
2021/06/09 12:40:20;;;;;;;363.67;346.33;;;25.00;99.90;;;;;;5113475;28;20257;-76
2021/06/09 12:42:59;;;;;;;373.85;355.55;;;25.30;99.90;;;;;;5113308;28;20184;-77
2021/06/09 12:45:26;;;;;;;460.40;437.13;;;25.60;99.90;;;;;;5113489;28;20261;-75
2021/06/09 12:47:52;;;;;;;486.63;460.60;;;25.60;99.90;;;;;;5113503;28;20245;-77
2021/06/09 12:50:22;;;;;;;463.55;440.05;;;25.50;99.90;;;;;;5113307;28;20190;-79
2021/06/09 12:52:53;;;;;;;462.83;439.15;;;25.30;99.90;;;;;;5113410;28;20159;-74
2021/06/09 12:55:25;;;;;;;429.75;408.35;;;24.90;99.90;;;;;;5113497;28;20158;-75
2021/06/09 12:57:53;;;;;;;329.65;314.15;;;24.70;99.90;;;;;;5113429;28;20170;-74
2021/06/09 13:00:32;;;;;;;396.00;376.90;;;24.80;99.90;;;;;;5112091;28;20261;-75
2021/06/09 13:03:27;;;;;;;389.33;370.52;;;24.90;99.90;;;;;;5113366;28;20170;-76
2021/06/09 13:06:08;;;;;;;411.77;391.17;;;25.00;99.90;;;;;;5090891;28;20178;-74
2021/06/09 13:08:49;;;;;;;469.55;445.42;;;25.10;99.90;;;;;;5116037;28;20268;-74
2021/06/09 13:11:16;;;;;;;442.30;420.27;;;25.10;99.90;;;;;;5117043;28;20190;-75
2021/06/09 13:13:47;;;;;;;468.17;444.42;;;25.10;99.90;;;;;;5117010;28;20213;-76
2021/06/09 13:16:33;;;;;;;526.25;498.70;;;25.00;99.90;;;;;;5115734;28;20170;-80
2021/06/09 13:19:12;;;;;;;474.88;450.55;;;24.70;99.90;;;;;;5116846;28;20163;-79
2021/06/09 13:21:43;;;;;;;438.13;416.48;;;24.50;99.90;;;;;;5116885;28;20587;-77
2021/06/09 13:24:18;;;;;;;457.90;434.98;;;24.50;99.90;;;;;;5116844;28;20163;-81
2021/06/09 13:27:05;;;;;;;466.42;443.02;;;24.50;99.90;;;;;;5116793;28;20196;-79
2021/06/09 13:29:35;;;;;;;454.27;431.52;;;24.70;99.90;;;;;;5116686;28;20201;-80
2021/06/09 13:32:11;;;;;;;482.70;458.13;;;24.90;99.90;;;;;;5116727;28;20178;-75
2021/06/09 13:34:37;;;;;;;523.30;496.00;;;25.00;99.90;;;;;;5116732;28;20662;-75
2021/06/09 13:37:04;;;;;;;450.02;427.67;;;24.80;99.90;;;;;;5116614;28;20174;-78
2021/06/09 13:39:42;;;;;;;475.42;451.33;;;24.60;99.90;;;;;;5116586;28;20190;-69
2021/06/09 13:42:08;;;;;;;425.27;404.45;;;24.60;99.90;;;;;;5116531;28;20245;-74
2021/06/09 13:44:43;;;;;;;445.25;423.30;;;24.80;99.90;;;;;;5116507;28;20308;-74
2021/06/09 13:47:10;;;;;;;427.65;406.70;;;24.80;99.90;;;;;;5116486;28;20254;-72
2021/06/09 13:49:41;;;;;;;434.55;413.15;;;24.90;99.90;;;;;;5116335;28;20190;-80
2021/06/09 13:52:10;;;;;;;428.95;407.90;;;25.10;99.90;;;;;;5116321;28;20162;-75
2021/06/09 13:54:41;;;;;;;437.00;415.27;;;25.30;99.90;;;;;;5116295;28;20163;-75
2021/06/09 13:57:13;;;;;;;464.83;441.15;;;25.40;99.90;;;;;;5116180;28;20163;-75
2021/06/09 13:59:58;;;;;;;491.30;466.13;;;25.50;99.90;;;;;;5116027;28;20627;-74
2021/06/09 14:02:30;;;;;;;514.45;487.73;;;25.30;99.90;;;;;;5116290;28;20166;-75
2021/06/09 14:05:19;;;;;;;533.15;504.45;;;25.40;99.90;;;;;;5116093;28;20163;-76
2021/06/09 14:07:49;;;;;;;511.67;484.85;;;25.60;99.90;;;;;;5114652;28;20530;-74
2021/06/09 14:10:20;;;;;;;535.65;507.05;;;25.80;99.90;;;;;;5115855;28;20254;-75
2021/06/09 14:12:49;;;;;;;560.63;529.95;;;26.00;99.90;;;;;;5115905;28;20226;-75
2021/06/09 14:15:25;;;;;;;617.00;581.65;;;26.10;99.90;;;;;;5115913;28;20163;-81
2021/06/09 14:17:52;;;;;;;579.65;547.50;;;25.70;99.90;;;;;;5115762;28;20753;-78
2021/06/09 14:20:30;;;;;;;573.30;541.97;;;25.20;99.90;;;;;;5115565;28;20309;-83
2021/06/09 14:22:58;;;;;;;523.22;495.65;;;24.80;99.90;;;;;;5115759;28;20246;-71
2021/06/09 14:25:30;;;;;;;548.25;519.30;;;24.70;99.90;;;;;;5115661;28;20171;-70
2021/06/09 14:28:04;;;;;;;532.33;504.40;;;24.60;99.90;;;;;;5115655;28;20167;-70
2021/06/09 14:30:54;;;;;;;499.08;473.42;;;24.60;99.90;;;;;;5115534;28;20281;-67
2021/06/09 14:34:03;;;;;;;533.10;505.10;;;24.50;99.90;;;;;;5105669;28;20219;-67
2021/06/09 14:36:47;;;;;;;499.13;473.50;;;24.40;99.90;;;;;;5115440;28;20169;-67
2021/06/09 14:39:13;;;;;;;464.77;441.52;;;24.30;99.90;;;;;;5115363;28;20197;-67
2021/06/09 14:41:50;;;;;;;487.45;462.75;;;24.50;99.90;;;;;;5115330;28;20163;-67
2021/06/09 14:44:21;;;;;;;505.58;479.23;;;24.70;99.90;;;;;;5115347;28;20178;-67
2021/06/09 14:46:55;;;;;;;496.10;470.85;;;24.80;99.90;;;;;;5115306;28;20501;-67
2021/06/09 14:49:38;;;;;;;504.00;478.13;;;24.80;99.90;;;;;;5113734;28;20193;-67
2021/06/09 14:52:28;;;;;;;510.17;483.88;;;24.80;99.90;;;;;;5115075;28;20170;-66
2021/06/09 14:54:59;;;;;;;484.05;459.60;;;24.60;99.90;;;;;;5115243;28;20178;-67
2021/06/09 14:57:26;;;;;;;492.17;467.23;;;24.70;99.90;;;;;;5115082;28;20167;-67
2021/06/09 14:59:54;;;;;;;473.38;449.50;;;25.00;99.90;;;;;;5114935;28;20171;-67
2021/06/09 15:02:25;;;;;;;523.70;495.85;;;25.50;99.90;;;;;;5114848;28;20174;-67
2021/06/09 15:04:51;;;;;;;569.13;538.10;;;25.90;99.90;;;;;;5114977;28;20198;-67
2021/06/09 15:07:17;;;;;;;578.28;546.40;;;26.00;99.90;;;;;;5114734;28;20172;-67
2021/06/09 15:09:43;;;;;;;521.80;494.40;;;25.80;99.90;;;;;;5114711;28;20282;-67
2021/06/09 15:12:10;;;;;;;564.92;533.72;;;25.60;99.90;;;;;;5114720;28;20167;-67
2021/06/09 15:14:36;;;;;;;529.92;501.85;;;25.40;99.90;;;;;;5114751;28;20162;-67
2021/06/09 15:17:02;;;;;;;500.02;474.15;;;25.40;99.90;;;;;;5114636;28;20642;-67
2021/06/09 15:19:28;;;;;;;536.50;507.73;;;25.60;99.90;;;;;;5114506;28;20224;-67
2021/06/09 15:21:53;;;;;;;604.40;570.28;;;25.90;99.90;;;;;;5114561;28;20174;-67
2021/06/09 15:24:19;;;;;;;612.10;577.17;;;25.80;99.90;;;;;;5113244;28;20639;-67
2021/06/09 15:26:44;;;;;;;607.90;573.75;;;25.60;99.90;;;;;;5114382;28;20694;-67
2021/06/09 15:29:11;;;;;;;580.15;548.15;;;25.40;99.90;;;;;;5113828;28;20216;-67
2021/06/09 15:31:38;;;;;;;550.25;520.67;;;25.30;99.90;;;;;;5114279;28;20166;-67
2021/06/09 15:34:05;;;;;;;569.15;537.78;;;25.40;99.90;;;;;;5114298;28;20171;-67
2021/06/09 15:36:34;;;;;;;598.15;564.72;;;25.40;99.90;;;;;;5114281;28;20613;-67
2021/06/09 15:39:03;;;;;;;603.25;569.47;;;25.40;99.90;;;;;;5114227;28;20170;-67
2021/06/09 15:41:29;;;;;;;576.72;544.95;;;25.20;99.90;;;;;;5112740;28;20175;-67
2021/06/09 15:43:55;;;;;;;581.92;549.92;;;25.10;99.90;;;;;;5114212;28;20513;-67
2021/06/09 15:46:20;;;;;;;527.55;499.88;;;25.20;99.90;;;;;;5114265;28;20170;-67
2021/06/09 15:48:46;;;;;;;552.83;523.08;;;25.80;99.90;;;;;;5112909;28;20162;-66
2021/06/09 15:51:11;;;;;;;647.15;608.95;;;26.50;99.90;;;;;;5114018;28;20229;-67
2021/06/09 15:53:37;;;;;;;671.67;631.30;;;27.20;99.90;;;;;;5114098;28;20173;-67
2021/06/09 15:56:03;;;;;;;599.70;565.95;;;27.70;99.90;;;;;;5112642;28;20177;-67
2021/06/09 15:58:28;;;;;;;510.52;483.95;;;27.90;99.90;;;;;;5113979;28;20177;-67
2021/06/09 16:00:55;;;;;;;509.88;482.88;;;27.90;99.90;;;;;;5114013;28;20166;-67
2021/06/09 16:03:21;;;;;;;464.52;440.98;;;28.10;99.90;;;;;;5113826;28;20163;-67
2021/06/09 16:05:46;;;;;;;573.83;542.42;;;28.30;99.90;;;;;;5113812;28;20171;-67
2021/06/09 16:08:12;;;;;;;550.08;520.65;;;28.30;99.90;;;;;;5113870;28;20166;-67
2021/06/09 16:10:37;;;;;;;585.95;553.53;;;28.20;99.90;;;;;;5113578;28;20221;-67
2021/06/09 16:13:03;;;;;;;501.23;475.17;;;28.00;99.90;;;;;;5113792;28;20242;-67
2021/06/09 16:15:29;;;;;;;596.42;562.83;;;28.00;99.90;;;;;;5113798;28;20571;-67
2021/06/09 16:17:55;;;;;;;607.22;573.05;;;27.90;99.90;;;;;;5113673;28;20166;-67
2021/06/09 16:20:20;;;;;;;594.38;561.05;;;27.80;99.90;;;;;;5113513;28;20687;-67
2021/06/09 16:22:46;;;;;;;583.20;551.05;;;27.60;99.90;;;;;;5113656;28;20158;-67
2021/06/09 16:25:12;;;;;;;598.55;564.97;;;27.40;99.90;;;;;;5113594;28;20632;-66
2021/06/09 16:27:38;;;;;;;566.78;535.55;;;27.00;99.90;;;;;;5113666;28;20165;-66
2021/06/09 16:30:08;;;;;;;587.70;555.03;;;26.80;99.90;;;;;;5113480;28;20227;-67
2021/06/09 16:32:35;;;;;;;624.42;587.85;;;26.50;99.90;;;;;;5113578;28;20212;-67
2021/06/09 16:35:02;;;;;;;656.35;616.67;;;26.50;99.90;;;;;;5113614;28;20155;-66
2021/06/09 16:39:54;;;;;;;694.22;649.78;;;26.00;99.90;;;;;;5106587;27;20297;-66
2021/06/09 16:42:20;;;;;;;638.00;600.83;;;26.00;99.90;;;;;;5090747;28;20544;-66
2021/06/09 16:44:46;;;;;;;657.97;618.88;;;26.30;99.90;;;;;;5090695;28;20164;-66
2021/06/09 16:47:11;;;;;;;613.25;578.10;;;26.60;99.90;;;;;;5090642;28;20172;-66
2021/06/09 16:49:37;;;;;;;564.55;533.58;;;27.10;99.90;;;;;;5090679;28;20254;-66
2021/06/09 16:52:03;;;;;;;555.80;525.55;;;27.60;99.90;;;;;;5090526;28;20171;-68
2021/06/09 16:54:34;;;;;;;541.33;512.42;;;28.00;99.90;;;;;;5090469;28;20171;-68
2021/06/09 16:59:30;;;;;;;662.55;623.08;;;28.50;99.90;;;;;;5090679;28;20191;-69
2021/06/09 17:01:56;;;;;;;737.97;692.47;;;28.40;99.90;;;;;;5090442;28;20181;-69
2021/06/09 17:04:23;;;;;;;714.38;670.80;;;28.00;99.90;;;;;;5089090;28;20168;-69
2021/06/09 17:06:49;;;;;;;680.95;640.08;;;27.80;99.90;;;;;;5090220;28;20212;-69
2021/06/09 17:09:17;;;;;;;666.00;626.42;;;27.70;99.90;;;;;;5090117;28;20163;-69
2021/06/09 17:11:43;;;;;;;665.40;625.70;;;27.70;99.90;;;;;;5090158;28;20189;-68
2021/06/09 17:14:09;;;;;;;630.92;594.33;;;27.60;99.90;;;;;;5090126;28;20713;-69
2021/06/09 17:16:39;;;;;;;670.75;630.58;;;27.70;99.90;;;;;;5090173;28;20172;-69
2021/06/09 17:19:05;;;;;;;652.50;614.22;;;27.70;99.90;;;;;;5089882;28;20194;-69
2021/06/09 17:21:31;;;;;;;651.90;613.53;;;27.60;99.90;;;;;;5088702;28;20171;-69
2021/06/09 17:23:56;;;;;;;633.53;596.38;;;27.80;99.90;;;;;;5089981;28;20167;-68
2021/06/09 17:26:22;;;;;;;582.97;550.67;;;27.90;99.90;;;;;;5089954;28;20175;-68
2021/06/09 17:28:48;;;;;;;592.75;559.75;;;27.90;99.90;;;;;;5089849;28;20171;-68
2021/06/09 17:31:14;;;;;;;673.72;633.08;;;28.20;99.90;;;;;;5089914;28;20159;-69
2021/06/09 17:33:40;;;;;;;576.20;544.72;;;28.20;99.90;;;;;;5088491;28;20531;-69
2021/06/09 17:36:07;;;;;;;708.95;664.58;;;28.30;99.90;;;;;;5089770;28;20172;-69
2021/06/09 17:38:34;;;;;;;807.17;755.83;;;28.30;99.90;;;;;;5089361;28;20222;-69
2021/06/09 17:41:01;;;;;;;834.63;780.47;;;28.30;99.90;;;;;;5089951;28;20609;-69
2021/06/09 17:43:26;;;;;;;779.22;730.45;;;28.10;99.90;;;;;;5089595;28;20163;-69
2021/06/09 17:45:52;;;;;;;807.50;756.30;;;28.20;99.90;;;;;;5089493;28;20163;-68
2021/06/09 17:48:18;;;;;;;837.15;783.00;;;27.90;99.90;;;;;;5089430;28;20182;-68
2021/06/09 17:50:48;;;;;;;800.42;749.40;;;27.80;99.90;;;;;;5079032;28;20176;-68
2021/06/09 17:53:14;;;;;;;771.65;723.40;;;27.60;99.90;;;;;;5075970;28;20552;-68
2021/06/09 17:55:40;;;;;;;725.08;680.47;;;27.50;99.90;;;;;;5075757;28;20261;-68
2021/06/09 17:58:05;;;;;;;743.88;697.85;;;27.20;99.90;;;;;;5075591;28;20203;-68
2021/06/09 18:00:37;;;;;;;728.78;683.78;;;27.10;99.90;;;;;;5075709;28;20165;-68
2021/06/09 18:03:04;;;;;;;689.05;646.95;;;26.90;99.90;;;;;;5075606;28;20171;-68
2021/06/09 18:05:52;;;;;;;666.63;626.53;;;26.60;99.90;;;;;;5075785;28;20171;-68
2021/06/09 18:08:20;;;;;;;630.33;593.55;;;26.50;99.90;;;;;;5075631;28;20171;-68
2021/06/09 18:10:46;;;;;;;624.65;588.67;;;26.30;99.90;;;;;;5075538;28;20176;-68
2021/06/09 18:13:12;;;;;;;611.90;577.00;;;26.20;99.90;;;;;;5075619;28;20676;-68
2021/06/09 18:15:38;;;;;;;586.75;553.97;;;26.30;99.90;;;;;;5075527;28;20247;-68
2021/06/09 18:18:04;;;;;;;619.78;583.90;;;26.40;99.90;;;;;;5074228;28;20550;-68
2021/06/09 18:20:30;;;;;;;635.42;598.47;;;26.40;99.90;;;;;;5075363;28;20171;-68
2021/06/09 18:22:57;;;;;;;582.65;550.25;;;26.30;99.90;;;;;;5075417;28;20235;-68
2021/06/09 18:25:23;;;;;;;593.45;560.28;;;26.40;99.90;;;;;;5075380;28;20186;-68
2021/06/09 18:27:49;;;;;;;585.70;553.17;;;26.40;99.90;;;;;;5075192;28;20583;-68
2021/06/09 18:30:15;;;;;;;615.67;580.50;;;26.50;99.90;;;;;;5075198;28;20191;-68
2021/06/09 18:32:42;;;;;;;600.50;565.95;;;26.50;99.90;;;;;;5075239;28;20206;-68
2021/06/09 18:35:09;;;;;;;583.97;551.50;;;26.60;99.90;;;;;;5075333;28;20188;-68
2021/06/09 18:37:34;;;;;;;606.45;571.95;;;26.50;99.90;;;;;;5074701;28;20172;-68
2021/06/09 18:40:00;;;;;;;635.08;598.20;;;26.50;99.90;;;;;;5075025;28;20184;-68
2021/06/09 18:42:26;;;;;;;622.95;587.33;;;26.30;99.90;;;;;;5074808;28;20168;-68
2021/06/09 18:44:52;;;;;;;644.53;606.60;;;26.20;99.90;;;;;;5074820;28;20712;-68
2021/06/09 18:47:18;;;;;;;631.03;594.40;;;26.10;99.90;;;;;;5074941;28;20217;-68
2021/06/09 18:49:44;;;;;;;645.45;607.65;;;26.00;99.90;;;;;;5074638;28;20187;-68
2021/06/09 18:52:14;;;;;;;651.60;613.13;;;25.80;99.90;;;;;;5074770;28;20175;-68
2021/06/09 18:54:41;;;;;;;624.10;588.15;;;25.70;99.90;;;;;;5074750;28;20164;-68
2021/06/09 18:57:07;;;;;;;639.53;602.40;;;25.60;99.90;;;;;;5074713;28;20247;-68
2021/06/09 18:59:33;;;;;;;643.67;605.67;;;25.60;99.90;;;;;;5074470;28;20187;-68
2021/06/09 19:02:00;;;;;;;639.92;602.65;;;25.50;99.90;;;;;;5073702;28;20168;-68
2021/06/09 19:04:26;;;;;;;637.17;599.65;;;25.40;99.90;;;;;;5074635;28;20227;-68
2021/06/09 19:06:55;;;;;;;625.80;589.92;;;25.20;99.90;;;;;;5074364;28;20164;-68
2021/06/09 19:09:22;;;;;;;627.83;591.72;;;24.90;99.90;;;;;;5074346;28;20168;-68
2021/06/09 19:11:48;;;;;;;609.58;574.97;;;24.70;99.90;;;;;;5074177;28;20229;-68
2021/06/09 19:14:14;;;;;;;600.00;566.25;;;24.50;99.90;;;;;;5074370;28;20168;-68
2021/06/09 19:16:40;;;;;;;613.55;578.78;;;24.30;99.90;;;;;;5074242;28;20194;-66
2021/06/09 19:19:07;;;;;;;653.72;615.08;;;24.10;99.90;;;;;;5074130;28;20234;-67
2021/06/09 19:21:36;;;;;;;670.70;631.15;;;23.80;99.90;;;;;;5074046;28;20159;-66
